Terminal Aerodrome Forecast
Issued by NWS Flagstaff, AZ

Home | Current Version | Previous Version | Text Only | Print | Product List | Glossary On
Versions: 1 2 3 4 5 6 7 8 9 10 11 12
000
FTUS45 KFGZ 252300
TAFINW
TAF
KINW 252320Z 2600/2624 21013G21KT P6SM SCT080 SCT250
     FM260230 20006KT P6SM FEW070 SCT250
     FM261800 23014G21KT P6SM SCT250=

USA.gov is the U.S. government's official web portal to all federal, state and local government web resources and services.